Time;durP1;ratioP1;P1;durP2;ratioP2;P2;SDS_P1;SDS_P2;PMS_P1;PMS_P2;Temp;Humidity;BMP_temperature;BMP_pressure;BME280_temperature;BME280_humidity;BME280_pressure;Samples;Min_cycle;Max_cycle;Signal;HPM_P1;HPM_P2
2022/04/12 00:01:34;;;;;;;5.90;2.42;;;;;;;7.49;46.94;100084.34;1785669;78;21081;-68
2022/04/12 00:04:01;;;;;;;6.75;2.22;;;;;;;7.48;46.84;100088.06;1788409;78;20947;-68
2022/04/12 00:06:30;;;;;;;6.93;3.50;;;;;;;7.48;46.80;100092.05;1654996;78;9999740;-70
2022/04/12 00:08:57;;;;;;;5.13;2.30;;;;;;;7.50;46.91;100089.42;1772136;79;21105;-68
2022/04/12 00:11:25;;;;;;;4.53;2.22;;;;;;;7.51;46.92;100092.88;1794988;79;20938;-68
2022/04/12 00:13:52;;;;;;;6.30;2.37;;;;;;;7.50;46.87;100088.09;1768539;79;21078;-70
2022/04/12 00:16:20;;;;;;;6.25;2.20;;;;;;;7.50;46.81;100085.44;1781774;79;21604;-69
2022/04/12 00:19:02;;;;;;;6.97;2.42;;;;;;;7.50;46.78;100082.78;1796470;79;21027;-69
2022/04/12 00:21:34;;;;;;;6.10;2.40;;;;;;;7.53;46.86;100088.11;1781149;78;21538;-69
2022/04/12 00:24:05;;;;;;;5.47;2.47;;;;;;;7.52;46.98;100085.17;1792344;79;21042;-70
2022/04/12 00:26:34;;;;;;;6.83;2.50;;;;;;;7.51;46.95;100089.69;1767481;79;26732;-70
2022/04/12 00:29:00;;;;;;;7.05;2.95;;;;;;;7.50;46.74;100080.63;1787470;79;21038;-70
2022/04/12 00:31:30;;;;;;;5.17;2.20;;;;;;;7.49;46.69;100088.33;1795473;79;21022;-70
2022/04/12 00:33:56;;;;;;;5.97;2.25;;;;;;;7.50;46.80;100086.77;1776948;79;21133;-70
2022/04/12 00:36:23;;;;;;;4.40;2.05;;;;;;;7.49;46.80;100084.34;1782656;79;21033;-70
2022/04/12 00:38:49;;;;;;;4.80;1.80;;;;;;;7.50;46.80;100084.61;1788288;79;21141;-70
2022/04/12 00:41:16;;;;;;;4.45;1.82;;;;;;;7.50;46.80;100088.09;1797078;79;21490;-70
2022/04/12 00:43:44;;;;;;;5.08;2.12;;;;;;;7.50;46.90;100092.58;1781232;78;21058;-70
2022/04/12 00:46:14;;;;;;;6.20;2.15;;;;;;;7.50;46.97;100089.42;1812815;78;21297;-68
2022/04/12 00:48:41;;;;;;;5.28;2.55;;;;;;;7.48;47.07;100082.75;1778552;79;20991;-68
2022/04/12 00:51:08;;;;;;;3.95;1.92;;;;;;;7.48;47.18;100077.43;1786620;79;21046;-68
2022/04/12 00:53:34;;;;;;;5.75;2.42;;;;;;;7.46;47.19;100073.67;1749251;80;21543;-68
2022/04/12 00:56:01;;;;;;;4.80;2.30;;;;;;;7.47;47.15;100081.15;1791569;79;21105;-68
2022/04/12 00:58:29;;;;;;;6.70;2.35;;;;;;;7.47;47.23;100079.29;1794675;79;22183;-68
2022/04/12 01:00:56;;;;;;;6.65;2.30;;;;;;;7.45;47.34;100080.05;1791256;79;21078;-68
2022/04/12 01:03:24;;;;;;;4.45;2.08;;;;;;;7.46;47.44;100076.86;1782273;79;21633;-69
2022/04/12 01:05:51;;;;;;;5.85;2.30;;;;;;;7.44;47.27;100073.67;1771744;79;21576;-68
2022/04/12 01:08:18;;;;;;;7.08;2.52;;;;;;;7.44;47.27;100073.67;1795384;79;21078;-69
2022/04/12 01:10:46;;;;;;;5.20;2.20;;;;;;;7.42;47.25;100073.10;1777518;79;21027;-68
2022/04/12 01:13:14;;;;;;;4.62;2.05;;;;;;;7.41;47.28;100071.51;1790939;79;21001;-68
2022/04/12 01:15:44;;;;;;;5.28;2.35;;;;;;;7.40;47.38;100077.84;1793610;79;21215;-69
2022/04/12 01:18:12;;;;;;;5.47;2.22;;;;;;;7.39;47.30;100073.06;1783772;79;21105;-69
2022/04/12 01:20:39;;;;;;;4.85;2.33;;;;;;;7.28;47.39;100070.02;1781191;79;21093;-69
2022/04/12 01:23:12;;;;;;;5.65;2.17;;;;;;;7.21;47.57;100071.53;1813274;78;21874;-70
2022/04/12 01:25:39;;;;;;;5.53;2.42;;;;;;;7.19;47.81;100064.85;1785451;78;21041;-69
2022/04/12 01:28:07;;;;;;;5.53;2.45;;;;;;;7.16;48.00;100068.00;1781976;79;21069;-69
2022/04/12 01:30:34;;;;;;;5.78;2.67;;;;;;;7.16;48.18;100069.33;1777277;79;21105;-70
2022/04/12 01:33:01;;;;;;;9.25;2.40;;;;;;;7.13;48.20;100071.94;1787559;78;21003;-68
2022/04/12 01:35:28;;;;;;;4.70;2.15;;;;;;;7.10;48.24;100069.77;1773335;79;22148;-68
2022/04/12 01:37:56;;;;;;;5.85;2.52;;;;;;;7.09;48.16;100062.06;1769065;79;21026;-68
2022/04/12 01:40:23;;;;;;;5.42;2.30;;;;;;;7.06;48.30;100054.06;1793979;79;21110;-68
2022/04/12 01:42:52;;;;;;;6.17;2.40;;;;;;;7.03;48.28;100035.96;1777956;79;21089;-69
2022/04/12 01:45:21;;;;;;;5.53;2.30;;;;;;;7.00;48.29;100035.12;1777707;79;21204;-69
2022/04/12 01:47:49;;;;;;;4.47;2.20;;;;;;;7.00;48.33;100049.20;1772430;79;21181;-69
2022/04/12 01:50:15;;;;;;;5.00;2.17;;;;;;;7.03;48.16;100028.00;1786495;79;21044;-69
2022/04/12 01:52:42;;;;;;;6.30;2.20;;;;;;;6.98;48.44;100030.60;1777430;79;21038;-68
2022/04/12 01:55:10;;;;;;;6.47;2.30;;;;;;;7.13;47.97;100022.81;1792028;79;21015;-69
2022/04/12 01:57:38;;;;;;;5.00;2.20;;;;;;;7.08;48.30;100021.97;1792151;79;21133;-70
2022/04/12 02:00:07;;;;;;;5.58;2.02;;;;;;;7.14;48.29;100034.23;1784514;79;21799;-70
2022/04/12 02:02:36;;;;;;;6.43;2.63;;;;;;;7.10;48.32;100016.66;1805127;78;21071;-69
2022/04/12 02:05:03;;;;;;;6.80;3.00;;;;;;;7.07;48.17;100022.47;1767726;79;22212;-71
2022/04/12 02:07:30;;;;;;;7.72;2.80;;;;;;;7.04;48.37;100009.67;1793770;78;21755;-69
2022/04/12 02:09:58;;;;;;;5.03;2.50;;;;;;;7.02;48.35;100021.09;1767292;80;21038;-69
2022/04/12 02:12:24;;;;;;;6.58;2.55;;;;;;;6.99;48.52;100017.06;1775473;79;21151;-69
2022/04/12 02:14:52;;;;;;;7.42;2.75;;;;;;;6.98;48.53;100014.67;1780317;79;21018;-69
2022/04/12 02:17:19;;;;;;;6.33;2.62;;;;;;;6.98;48.54;100022.11;1794604;79;21078;-69
2022/04/12 02:19:48;;;;;;;7.00;2.90;;;;;;;6.97;48.49;100013.05;1780881;79;21124;-69
2022/04/12 02:22:14;;;;;;;7.90;2.65;;;;;;;6.96;48.26;100016.76;1757624;79;20999;-69
2022/04/12 02:24:41;;;;;;;7.15;2.67;;;;;;;6.95;48.29;100016.48;1789493;78;21279;-69
2022/04/12 02:27:09;;;;;;;5.92;2.65;;;;;;;6.92;48.35;100027.59;1796810;79;21102;-69
2022/04/12 02:29:36;;;;;;;7.00;3.22;;;;;;;6.91;48.37;100024.64;1774994;79;21050;-69
2022/04/12 02:32:05;;;;;;;7.17;3.00;;;;;;;6.91;48.28;100036.59;1788799;79;21062;-69
2022/04/12 02:34:31;;;;;;;8.43;3.20;;;;;;;6.91;48.47;100032.61;1796883;79;21113;-69
2022/04/12 02:36:58;;;;;;;8.93;3.47;;;;;;;6.89;48.35;100030.73;1777608;79;21543;-69
2022/04/12 02:39:25;;;;;;;8.85;3.85;;;;;;;6.89;48.39;100024.11;1787397;78;21053;-69
2022/04/12 02:41:52;;;;;;;8.58;3.37;;;;;;;6.87;48.32;100039.46;1812744;78;21155;-70
2022/04/12 02:44:20;;;;;;;7.47;3.33;;;;;;;6.86;48.48;100031.23;1780970;78;21120;-69
2022/04/12 02:46:48;;;;;;;9.48;3.45;;;;;;;6.84;48.49;100034.11;1776851;79;21627;-69
2022/04/12 02:49:15;;;;;;;11.60;3.87;;;;;;;6.83;48.63;100029.06;1798479;79;21100;-68
2022/04/12 02:51:41;;;;;;;7.08;3.50;;;;;;;6.79;48.68;100032.20;1783772;79;21078;-69
2022/04/12 02:54:08;;;;;;;12.10;3.80;;;;;;;6.77;48.65;100025.00;1791001;79;21026;-70
2022/04/12 02:56:34;;;;;;;9.98;4.20;;;;;;;6.75;48.72;100028.44;1780929;79;21438;-70
2022/04/12 02:59:01;;;;;;;8.93;3.90;;;;;;;6.74;48.62;100031.32;1757954;79;21038;-70
2022/04/12 03:01:28;;;;;;;10.90;3.85;;;;;;;6.73;48.60;100025.21;1786995;79;21129;-70
2022/04/12 03:03:54;;;;;;;10.53;4.20;;;;;;;6.72;48.56;100039.54;1796041;78;21537;-71
2022/04/12 03:06:23;;;;;;;11.70;4.78;;;;;;;6.71;48.28;100034.45;1767144;80;21644;-70
2022/04/12 03:08:51;;;;;;;10.50;4.45;;;;;;;6.69;48.32;100037.37;1768567;79;21034;-70
2022/04/12 03:11:19;;;;;;;11.15;4.80;;;;;;;6.70;48.34;100028.88;1797662;79;21057;-70
2022/04/12 03:13:48;;;;;;;11.25;4.55;;;;;;;6.69;48.44;100026.75;1797358;79;21066;-70
2022/04/12 03:16:17;;;;;;;12.23;4.90;;;;;;;6.66;48.48;100044.48;1782072;79;21026;-70
2022/04/12 03:18:45;;;;;;;12.43;4.70;;;;;;;6.67;48.47;100032.02;1809700;78;21062;-69
2022/04/12 03:21:12;;;;;;;13.48;4.55;;;;;;;6.67;48.51;100027.52;1777320;79;21082;-69
2022/04/12 03:23:39;;;;;;;9.88;4.47;;;;;;;6.66;48.35;100032.55;1780838;79;21077;-69
2022/04/12 03:26:06;;;;;;;12.33;4.78;;;;;;;6.65;48.25;100019.01;1793791;79;21421;-69
2022/04/12 03:28:33;;;;;;;11.85;4.50;;;;;;;6.63;48.45;100014.98;1781508;79;21066;-69
2022/04/12 03:31:00;;;;;;;11.70;4.12;;;;;;;6.62;48.23;100008.88;1789253;79;21535;-69
2022/04/12 03:33:29;;;;;;;8.25;4.03;;;;;;;6.61;48.14;100027.16;1783430;79;21038;-69
2022/04/12 03:35:57;;;;;;;9.53;4.37;;;;;;;6.63;48.13;100011.00;1797650;78;21070;-69
2022/04/12 03:38:23;;;;;;;10.75;4.33;;;;;;;6.66;48.29;100015.83;1767888;79;21237;-68
2022/04/12 03:40:50;;;;;;;10.95;4.53;;;;;;;6.67;48.24;100018.75;1788707;79;21134;-69
2022/04/12 03:43:18;;;;;;;10.98;4.35;;;;;;;6.65;48.19;100030.95;1768517;79;21074;-70
2022/04/12 03:45:44;;;;;;;10.68;4.20;;;;;;;6.66;48.19;100043.16;1787224;79;21034;-68
2022/04/12 03:48:11;;;;;;;10.58;3.95;;;;;;;6.67;48.10;100038.66;1784410;79;21057;-69
2022/04/12 03:50:37;;;;;;;11.97;3.75;;;;;;;6.68;48.04;100042.41;1789820;79;21545;-68
2022/04/12 03:53:05;;;;;;;10.65;4.12;;;;;;;6.68;47.95;100041.08;1794977;79;21097;-69
2022/04/12 03:55:34;;;;;;;12.53;4.30;;;;;;;6.69;48.06;100057.80;1794156;79;21050;-68
2022/04/12 03:58:05;;;;;;;10.78;4.22;;;;;;;6.69;47.79;100037.37;1790089;78;21068;-68
2022/04/12 04:00:35;;;;;;;9.48;3.55;;;;;;;6.71;47.77;100039.77;1783480;78;21007;-68
2022/04/12 04:03:03;;;;;;;9.05;3.83;;;;;;;6.72;47.80;100042.72;1778350;79;21492;-68
2022/04/12 04:05:30;;;;;;;8.95;3.90;;;;;;;6.75;47.44;100036.40;1790522;79;21002;-70
2022/04/12 04:07:57;;;;;;;9.63;4.37;;;;;;;6.78;47.44;100051.84;1797377;79;20998;-69
2022/04/12 04:10:25;;;;;;;8.40;3.95;;;;;;;6.81;47.18;100050.52;1798636;78;20960;-69
2022/04/12 04:12:53;;;;;;;9.58;3.33;;;;;;;6.83;47.14;100049.77;1782637;78;20980;-70
2022/04/12 04:15:20;;;;;;;9.25;3.72;;;;;;;6.88;47.07;100050.34;1797538;79;21885;-70
2022/04/12 04:17:49;;;;;;;9.93;4.25;;;;;;;6.90;47.13;100054.91;1797119;79;20967;-69
2022/04/12 04:20:18;;;;;;;10.75;4.15;;;;;;;6.92;47.07;100060.78;1795465;78;21592;-70
2022/04/12 04:22:44;;;;;;;8.83;3.42;;;;;;;6.93;46.84;100063.70;1797045;79;21501;-69
2022/04/12 04:25:14;;;;;;;11.53;4.53;;;;;;;6.94;46.86;100063.98;1798249;78;21030;-70
2022/04/12 04:27:43;;;;;;;10.03;4.08;;;;;;;6.95;46.82;100070.91;1799679;79;20979;-70
2022/04/12 04:30:12;;;;;;;11.05;4.47;;;;;;;6.96;46.61;100079.95;1795929;79;21568;-68
2022/04/12 04:32:40;;;;;;;8.98;4.25;;;;;;;6.99;46.61;100066.19;1797102;79;21074;-69
2022/04/12 04:35:09;;;;;;;11.45;4.17;;;;;;;7.02;46.82;100066.23;1798058;78;21135;-69
2022/04/12 04:37:46;;;;;;;10.63;4.10;;;;;;;7.05;46.94;100067.06;1797268;79;20998;-68
2022/04/12 04:40:18;;;;;;;11.25;4.78;;;;;;;7.08;47.00;100066.58;1795671;79;21126;-69
2022/04/12 04:42:52;;;;;;;10.78;4.35;;;;;;;7.13;46.82;100067.16;1800825;79;20999;-70
2022/04/12 04:45:15;;;;;;;9.68;4.12;;;;;;;7.13;46.80;100063.97;1791264;79;21073;-70
2022/04/12 04:47:55;;;;;;;12.65;4.80;;;;;;;7.17;46.58;100073.08;1794256;79;21537;-70
2022/04/12 04:50:23;;;;;;;11.53;4.55;;;;;;;7.20;46.50;100073.09;1798539;78;21418;-69
2022/04/12 04:52:50;;;;;;;11.70;4.40;;;;;;;7.21;46.29;100066.22;1797495;79;21786;-69
2022/04/12 04:55:18;;;;;;;11.78;4.78;;;;;;;7.25;46.31;100059.88;1795829;78;21493;-69
2022/04/12 04:57:47;;;;;;;12.18;4.35;;;;;;;7.31;46.28;100059.44;1794411;79;21097;-69
2022/04/12 05:00:17;;;;;;;10.15;4.70;;;;;;;7.33;46.24;100061.30;1769373;80;21018;-69
2022/04/12 05:02:53;;;;;;;10.10;3.87;;;;;;;7.36;46.00;100052.83;1791691;79;20928;-69
2022/04/12 05:05:20;;;;;;;12.20;4.20;;;;;;;7.36;45.93;100053.63;1797833;79;21145;-69
2022/04/12 05:07:52;;;;;;;10.32;3.85;;;;;;;7.40;45.75;100060.58;1796946;79;20982;-69
2022/04/12 05:10:29;;;;;;;7.90;3.47;;;;;;;7.45;45.83;100050.02;1795065;79;21002;-69
2022/04/12 05:12:58;;;;;;;11.95;3.65;;;;;;;7.50;45.73;100057.54;1795999;79;21010;-69
2022/04/12 05:15:31;;;;;;;8.95;3.55;;;;;;;7.54;45.30;100055.19;1797080;79;20970;-69
2022/04/12 05:17:55;;;;;;;10.55;4.35;;;;;;;7.59;45.53;100056.55;1790259;79;21112;-69
2022/04/12 05:20:24;;;;;;;8.68;3.50;;;;;;;7.66;45.30;100052.37;1784803;79;21033;-69
2022/04/12 05:22:53;;;;;;;7.35;3.65;;;;;;;7.72;45.31;100048.72;1800198;78;20944;-69
2022/04/12 05:25:26;;;;;;;9.85;3.25;;;;;;;7.78;45.11;100054.90;1800925;79;21053;-68
2022/04/12 05:27:50;;;;;;;9.85;3.60;;;;;;;7.83;44.69;100060.25;1795905;78;21104;-69
2022/04/12 05:30:18;;;;;;;8.43;3.30;;;;;;;7.88;44.51;100064.30;1801344;79;21634;-70
2022/04/12 05:32:45;;;;;;;11.12;3.60;;;;;;;7.95;44.31;100056.92;1789883;79;21117;-70
2022/04/12 05:35:14;;;;;;;10.25;3.52;;;;;;;7.99;44.29;100052.70;1785801;79;21022;-68
2022/04/12 05:37:52;;;;;;;13.60;3.92;;;;;;;8.04;44.31;100067.38;1772306;79;21009;-70
2022/04/12 05:40:21;;;;;;;13.45;4.50;;;;;;;8.07;43.87;100066.88;1768245;80;20991;-68
2022/04/12 05:42:48;;;;;;;8.90;3.98;;;;;;;8.12;43.88;100076.75;1769115;80;21071;-69
2022/04/12 05:45:15;;;;;;;12.13;4.50;;;;;;;8.16;43.79;100083.17;1783726;78;21097;-69
2022/04/12 05:47:50;;;;;;;11.93;4.62;;;;;;;8.18;43.80;100063.25;1796514;79;21019;-70
2022/04/12 05:50:22;;;;;;;11.22;4.50;;;;;;;8.22;43.74;100070.99;1798671;79;21010;-70
2022/04/12 05:52:49;;;;;;;11.03;4.30;;;;;;;8.27;43.66;100070.25;1799648;79;21037;-69
2022/04/12 05:55:17;;;;;;;11.25;4.30;;;;;;;8.30;43.70;100066.28;1797153;78;21111;-68
2022/04/12 05:57:54;;;;;;;13.00;5.35;;;;;;;8.34;43.69;100072.70;1784355;78;20943;-70
2022/04/12 06:00:23;;;;;;;11.63;4.40;;;;;;;8.34;43.65;100068.70;1789147;78;21045;-69
2022/04/12 06:02:50;;;;;;;11.95;4.40;;;;;;;8.32;43.46;100077.45;1790791;79;21002;-70
2022/04/12 06:05:18;;;;;;;10.58;4.40;;;;;;;8.29;43.42;100078.80;1800527;79;21077;-70
2022/04/12 06:07:46;;;;;;;11.45;4.87;;;;;;;8.28;43.55;100072.38;1800671;79;21404;-70
2022/04/12 06:10:17;;;;;;;11.95;4.10;;;;;;;8.28;43.55;100076.37;1798377;78;21047;-68
2022/04/12 06:12:46;;;;;;;12.23;4.70;;;;;;;8.28;43.37;100081.69;1801782;79;21038;-70
2022/04/12 06:15:15;;;;;;;11.43;4.10;;;;;;;8.27;43.45;100079.56;1801547;79;21027;-70
2022/04/12 06:17:44;;;;;;;11.05;4.42;;;;;;;8.28;43.31;100097.66;1795188;78;21046;-70
2022/04/12 06:20:17;;;;;;;9.98;3.90;;;;;;;8.29;43.68;100080.13;1796581;79;20954;-69
2022/04/12 06:22:44;;;;;;;9.78;4.33;;;;;;;8.35;43.49;100067.11;1797932;78;20984;-70
2022/04/12 06:25:14;;;;;;;10.50;4.20;;;;;;;8.40;43.51;100077.04;1794072;78;20983;-69
2022/04/12 06:27:43;;;;;;;10.50;4.08;;;;;;;8.44;43.68;100076.27;1773610;79;21050;-69
2022/04/12 06:30:16;;;;;;;11.38;4.42;;;;;;;8.51;43.82;100073.39;1778099;79;21065;-70
2022/04/12 06:32:44;;;;;;;9.88;4.35;;;;;;;8.54;43.36;100077.41;1800328;78;20924;-69
2022/04/12 06:35:12;;;;;;;11.10;3.83;;;;;;;8.53;43.32;100074.48;1806773;78;21053;-70
2022/04/12 06:37:42;;;;;;;9.40;4.15;;;;;;;8.54;43.60;100071.55;1800982;79;20963;-70
2022/04/12 06:40:11;;;;;;;9.80;3.98;;;;;;;8.58;43.34;100080.63;1810511;79;21500;-70
2022/04/12 06:42:38;;;;;;;9.08;3.05;;;;;;;8.58;43.16;100065.19;1803304;78;21010;-69
2022/04/12 06:45:07;;;;;;;10.03;3.40;;;;;;;8.57;43.07;100076.36;1809174;78;21102;-69
2022/04/12 06:47:38;;;;;;;8.78;3.47;;;;;;;8.59;43.25;100081.45;1781984;79;21049;-70
2022/04/12 06:50:06;;;;;;;9.25;3.42;;;;;;;8.63;43.47;100066.03;1786822;79;21021;-70
2022/04/12 06:52:32;;;;;;;11.93;3.67;;;;;;;8.73;43.74;100067.16;1790890;78;21043;-71
2022/04/12 06:54:59;;;;;;;8.48;3.50;;;;;;;8.80;43.15;100067.73;1775861;79;21007;-70
2022/04/12 06:57:32;;;;;;;8.48;2.98;;;;;;;8.84;43.24;100058.17;1796512;78;21133;-69
2022/04/12 07:00:03;;;;;;;6.67;3.10;;;;;;;8.89;42.92;100078.98;1765704;79;20982;-70
2022/04/12 07:02:31;;;;;;;5.83;2.37;;;;;;;8.93;43.06;100057.43;1791673;79;21004;-70
2022/04/12 07:04:58;;;;;;;7.42;2.47;;;;;;;9.00;42.75;100070.52;1793759;78;21503;-70
2022/04/12 07:07:26;;;;;;;6.37;2.20;;;;;;;9.07;42.71;100067.09;1793749;78;21086;-71
2022/04/12 07:09:55;;;;;;;6.22;1.92;;;;;;;9.11;42.43;100060.20;1768343;80;21006;-70
2022/04/12 07:12:23;;;;;;;5.80;2.00;;;;;;;9.12;41.97;100061.80;1770264;78;21145;-69
2022/04/12 07:14:51;;;;;;;4.83;1.70;;;;;;;9.12;42.27;100066.33;1800884;79;20971;-69
2022/04/12 07:17:20;;;;;;;5.75;2.08;;;;;;;9.15;42.32;100061.28;1800006;79;21030;-69
2022/04/12 07:19:46;;;;;;;5.60;2.00;;;;;;;9.20;42.29;100061.83;1773794;79;20987;-70
2022/04/12 07:22:13;;;;;;;7.65;1.95;;;;;;;9.26;42.12;100048.80;1769499;80;21116;-70
2022/04/12 07:24:40;;;;;;;4.05;1.75;;;;;;;9.33;41.89;100059.22;1769194;80;21031;-70
2022/04/12 07:27:06;;;;;;;5.25;2.08;;;;;;;9.39;41.81;100064.84;1769896;80;21026;-70
2022/04/12 07:29:33;;;;;;;5.42;2.05;;;;;;;9.47;41.69;100045.66;1777348;79;20975;-69
2022/04/12 07:32:00;;;;;;;5.10;2.08;;;;;;;9.50;41.54;100051.01;1769557;80;21514;-69
2022/04/12 07:34:27;;;;;;;6.00;1.90;;;;;;;9.54;41.39;100052.91;1770232;79;21667;-70
2022/04/12 07:36:55;;;;;;;6.75;2.15;;;;;;;9.58;41.20;100038.52;1768540;80;21006;-70
2022/04/12 07:39:23;;;;;;;6.12;2.12;;;;;;;9.63;40.85;100055.31;1769270;80;21077;-69
2022/04/12 07:41:51;;;;;;;6.90;2.27;;;;;;;9.68;40.70;100039.08;1769444;80;21007;-70
2022/04/12 07:44:19;;;;;;;4.90;1.90;;;;;;;9.78;40.91;100042.55;1769405;80;20951;-70
2022/04/12 07:46:46;;;;;;;6.22;2.55;;;;;;;9.90;40.20;100036.16;1769374;79;21771;-70
2022/04/12 07:49:13;;;;;;;6.37;2.55;;;;;;;10.00;40.48;100037.00;1788249;78;21042;-70
2022/04/12 07:51:41;;;;;;;5.28;2.20;;;;;;;10.13;40.14;100055.66;1780608;78;20999;-70
2022/04/12 07:54:08;;;;;;;5.55;2.35;;;;;;;10.20;39.58;100060.73;1782478;79;21805;-70
2022/04/12 07:56:35;;;;;;;6.00;2.35;;;;;;;10.26;39.67;100037.81;1800398;79;21495;-70
2022/04/12 07:59:03;;;;;;;6.92;2.60;;;;;;;10.38;39.79;100038.89;1800399;79;21051;-70
2022/04/12 08:01:30;;;;;;;8.15;3.00;;;;;;;10.52;39.91;100042.60;1800302;78;21533;-71
2022/04/12 08:03:57;;;;;;;8.03;3.02;;;;;;;10.67;39.52;100043.67;1800994;79;20995;-69
2022/04/12 08:06:24;;;;;;;6.30;2.33;;;;;;;10.76;39.59;100046.06;1800914;79;21069;-70
2022/04/12 08:08:51;;;;;;;9.63;2.20;;;;;;;10.85;38.37;100036.40;1772773;78;21526;-69
2022/04/12 08:11:18;;;;;;;4.78;1.98;;;;;;;10.86;38.16;100055.90;1769104;80;21142;-71
2022/04/12 08:13:46;;;;;;;7.35;2.27;;;;;;;10.83;38.30;100071.95;1769666;80;20943;-68
2022/04/12 08:16:15;;;;;;;6.65;2.55;;;;;;;10.88;38.53;100051.09;1774013;78;21078;-70
2022/04/12 08:18:44;;;;;;;6.97;2.62;;;;;;;10.96;38.74;100063.38;1802731;79;20986;-70
2022/04/12 08:21:11;;;;;;;6.33;2.25;;;;;;;11.12;38.52;100053.95;1803448;79;21094;-68
2022/04/12 08:23:38;;;;;;;8.05;2.50;;;;;;;11.20;37.92;100057.42;1801368;79;21155;-69
2022/04/12 08:26:07;;;;;;;6.92;2.40;;;;;;;11.21;38.11;100046.98;1777018;78;21415;-70
2022/04/12 08:28:35;;;;;;;7.10;2.52;;;;;;;11.23;37.36;100053.66;1790168;79;21391;-69
2022/04/12 08:31:02;;;;;;;6.03;2.00;;;;;;;11.18;37.50;100059.02;1801203;79;21010;-70
2022/04/12 08:33:33;;;;;;;7.60;2.20;;;;;;;11.08;37.27;100045.69;1795176;78;21558;-70
2022/04/12 08:35:59;;;;;;;6.55;2.52;;;;;;;11.01;37.62;100053.20;1769120;80;21102;-69
2022/04/12 08:38:27;;;;;;;7.80;2.77;;;;;;;11.06;38.30;100057.20;1769339;80;37616;-70
2022/04/12 08:40:54;;;;;;;5.97;2.60;;;;;;;11.16;37.97;100053.16;1769053;80;20994;-69
2022/04/12 08:43:21;;;;;;;5.35;2.10;;;;;;;11.23;37.83;100056.88;1770147;79;21015;-69
2022/04/12 08:45:49;;;;;;;5.10;1.90;;;;;;;11.30;38.04;100045.34;1769174;80;21058;-70
2022/04/12 08:48:16;;;;;;;5.67;1.80;;;;;;;11.39;37.46;100071.78;1780089;79;21041;-69
2022/04/12 08:50:43;;;;;;;7.05;1.98;;;;;;;11.44;36.92;100040.99;1769324;80;21007;-70
2022/04/12 08:53:12;;;;;;;5.28;2.50;;;;;;;11.41;36.68;100029.51;1788892;79;21019;-71
2022/04/12 08:55:39;;;;;;;4.90;2.10;;;;;;;11.41;37.62;100040.20;1800690;79;21016;-71
2022/04/12 08:58:06;;;;;;;5.05;1.90;;;;;;;11.48;37.81;100023.34;1800970;79;21018;-68
2022/04/12 09:00:34;;;;;;;5.37;1.70;;;;;;;11.55;37.03;100026.23;1772939;79;22266;-69
2022/04/12 09:03:00;;;;;;;4.78;1.77;;;;;;;11.59;36.56;100043.34;1769504;80;21006;-69
2022/04/12 09:05:27;;;;;;;4.22;1.37;;;;;;;11.62;36.25;100021.40;1769436;80;21038;-69
2022/04/12 09:07:54;;;;;;;6.90;1.85;;;;;;;11.60;35.30;100032.36;1769289;80;21034;-70
2022/04/12 09:10:36;;;;;;;5.58;1.95;;;;;;;11.56;35.98;100045.23;1769259;80;21086;-70
2022/04/12 09:13:11;;;;;;;4.60;1.60;;;;;;;11.64;36.42;100049.98;1769457;80;21890;-70
2022/04/12 09:15:44;;;;;;;4.17;1.50;;;;;;;11.72;34.98;100056.11;1797591;79;20979;-71
2022/04/12 09:18:11;;;;;;;4.17;1.47;;;;;;;11.66;34.53;100026.45;1769484;80;21818;-70
2022/04/12 09:20:41;;;;;;;6.22;1.40;;;;;;;11.63;34.49;100003.72;1769248;80;21525;-70
2022/04/12 09:23:15;;;;;;;6.03;1.70;;;;;;;11.62;34.20;100030.77;1769442;80;20999;-70
2022/04/12 09:25:55;;;;;;;5.75;1.60;;;;;;;11.62;34.05;100028.08;1769189;80;21102;-69
2022/04/12 09:28:22;;;;;;;4.58;1.70;;;;;;;11.56;33.74;100023.83;1801098;79;20995;-70
2022/04/12 09:30:53;;;;;;;5.37;1.60;;;;;;;11.48;34.03;100025.19;1801025;79;21601;-70
2022/04/12 09:33:41;;;;;;;7.87;1.80;;;;;;;11.49;34.30;100003.54;1789102;79;21453;-69
2022/04/12 09:36:06;;;;;;;5.28;1.72;;;;;;;11.59;34.33;100025.42;1788486;78;20972;-69
2022/04/12 09:38:39;;;;;;;4.85;1.70;;;;;;;11.63;33.70;100018.43;1769715;80;21486;-69
2022/04/12 09:41:27;;;;;;;5.25;1.77;;;;;;;11.66;33.72;100036.61;1769566;80;25422;-69
2022/04/12 09:44:15;;;;;;;4.55;1.70;;;;;;;11.68;33.75;100022.42;1769751;80;21058;-70
2022/04/12 09:46:39;;;;;;;5.37;1.87;;;;;;;11.71;34.19;100048.62;1768887;80;21058;-69
2022/04/12 09:49:06;;;;;;;7.03;2.05;;;;;;;11.73;33.87;100017.03;1769683;80;21628;-69
2022/04/12 09:51:36;;;;;;;4.78;1.70;;;;;;;11.69;33.80;100032.05;1787016;79;21123;-69
2022/04/12 09:54:10;;;;;;;5.73;1.50;;;;;;;11.64;33.87;100064.16;1769495;80;21192;-70
2022/04/12 09:56:36;;;;;;;3.87;1.30;;;;;;;11.63;34.11;100028.34;1769099;80;21523;-69
2022/04/12 09:59:07;;;;;;;4.70;1.30;;;;;;;11.71;34.39;100035.77;1769585;80;21128;-70
2022/04/12 10:01:39;;;;;;;3.87;1.45;;;;;;;11.81;33.96;100018.30;1769575;79;21216;-70
2022/04/12 10:04:05;;;;;;;4.50;1.40;;;;;;;11.81;33.59;100039.71;1769266;80;21153;-71
2022/04/12 10:06:35;;;;;;;3.50;1.40;;;;;;;11.83;34.05;100037.57;1783564;78;21517;-70
2022/04/12 10:09:04;;;;;;;5.03;1.60;;;;;;;11.87;33.51;100008.41;1801231;79;21525;-70
2022/04/12 10:11:33;;;;;;;3.92;1.60;;;;;;;12.00;33.66;100033.20;1781495;79;20999;-70
2022/04/12 10:14:03;;;;;;;5.40;1.90;;;;;;;12.15;33.61;100047.02;1800698;79;21549;-70
2022/04/12 10:16:31;;;;;;;7.17;1.80;;;;;;;12.27;33.30;100047.44;1791981;79;21570;-69
2022/04/12 10:19:00;;;;;;;4.80;1.83;;;;;;;12.34;33.05;100046.60;1791510;80;21096;-70
2022/04/12 10:21:28;;;;;;;5.73;1.60;;;;;;;12.34;32.50;100049.80;1792301;80;21922;-69
2022/04/12 10:23:57;;;;;;;3.47;1.50;;;;;;;12.30;32.24;100036.17;1739651;80;21771;-70
2022/04/12 10:26:25;;;;;;;6.37;1.80;;;;;;;12.28;32.65;100043.70;1819304;78;21207;-70
2022/04/12 10:28:59;;;;;;;4.63;1.47;;;;;;;12.34;32.92;100041.76;1785126;79;21289;-70
2022/04/12 10:31:30;;;;;;;5.40;1.77;;;;;;;12.32;31.84;100083.56;1795271;79;21591;-69
2022/04/12 10:34:14;;;;;;;5.28;1.50;;;;;;;12.24;32.43;100042.67;1804542;79;21796;-71
2022/04/12 10:37:04;;;;;;;4.30;1.40;;;;;;;12.19;32.28;100036.00;1803539;79;21034;-70
2022/04/12 10:39:50;;;;;;;6.50;1.80;;;;;;;12.23;32.36;100053.65;1804398;79;21269;-70
2022/04/12 10:42:25;;;;;;;4.43;1.50;;;;;;;12.35;32.77;100037.48;1785354;79;21163;-70
2022/04/12 10:44:58;;;;;;;5.57;1.73;;;;;;;12.49;32.22;100050.22;1769411;80;21750;-70
2022/04/12 10:47:32;;;;;;;4.30;1.47;;;;;;;12.46;31.74;100034.70;1768829;80;21699;-70
2022/04/12 10:50:05;;;;;;;4.47;1.53;;;;;;;12.38;31.83;100037.47;1781563;79;21231;-70
2022/04/12 10:52:51;;;;;;;5.63;1.87;;;;;;;12.38;32.01;100063.70;1800952;79;21229;-69
2022/04/12 10:55:25;;;;;;;4.37;1.50;;;;;;;12.38;31.95;100050.31;1801249;79;21791;-70
2022/04/12 10:57:53;;;;;;;5.17;1.50;;;;;;;12.36;32.09;100080.58;1799964;79;21722;-69
2022/04/12 11:00:22;;;;;;;6.13;1.70;;;;;;;12.35;31.93;100062.92;1801032;79;21566;-71
2022/04/12 11:02:56;;;;;;;4.25;1.50;;;;;;;12.35;32.08;100034.80;1801033;79;21224;-71
2022/04/12 11:05:44;;;;;;;5.87;1.50;;;;;;;12.33;31.79;100064.27;1801126;79;21501;-71
2022/04/12 11:08:20;;;;;;;5.33;1.60;;;;;;;12.28;32.01;100056.30;1769709;79;21609;-70
2022/04/12 11:10:57;;;;;;;4.57;1.37;;;;;;;12.33;32.10;100044.98;1771361;79;21173;-70
2022/04/12 11:13:35;;;;;;;6.10;1.70;;;;;;;12.45;32.18;100037.93;1771298;79;21674;-69
2022/04/12 11:16:08;;;;;;;5.50;1.97;;;;;;;12.57;31.52;100033.52;1789746;79;21567;-69
2022/04/12 11:18:57;;;;;;;3.97;1.80;;;;;;;12.49;31.51;100072.44;1801446;79;21235;-69
2022/04/12 11:21:48;;;;;;;6.80;1.77;;;;;;;12.38;31.95;100061.56;1801743;79;21214;-70
2022/04/12 11:24:15;;;;;;;6.65;1.45;;;;;;;12.36;32.08;100030.23;1787045;79;21241;-68
2022/04/12 11:26:50;;;;;;;4.30;1.50;;;;;;;12.43;32.49;100038.20;1769692;80;21046;-69
2022/04/12 11:29:22;;;;;;;3.40;1.50;;;;;;;12.53;32.41;100053.38;1769147;79;22337;-69
2022/04/12 11:31:53;;;;;;;12.03;3.25;;;;;;;12.62;31.70;100039.63;1774694;79;21298;-69
2022/04/12 11:34:22;;;;;;;5.17;1.57;;;;;;;12.68;31.37;100051.11;1801384;79;21484;-69
2022/04/12 11:36:54;;;;;;;3.87;1.50;;;;;;;12.76;31.30;100037.08;1800646;78;21466;-69
2022/04/12 11:39:23;;;;;;;4.13;1.40;;;;;;;12.86;31.62;100045.55;1801062;79;21258;-69